Time;durP1;ratioP1;P1;durP2;ratioP2;P2;SDS_P1;SDS_P2;PMS_P1;PMS_P2;Temp;Humidity;BMP_temperature;BMP_pressure;BME280_temperature;BME280_humidity;BME280_pressure;Samples;Min_cycle;Max_cycle;Signal;HPM_P1;HPM_P2
2023/05/03 00:01:22;;;;;;;4.07;2.50;;;10.30;61.00;;;13.02;44.88;102814.50;5116721;28;20199;-60
2023/05/03 00:03:51;;;;;;;4.97;2.50;;;10.30;61.60;;;12.98;44.73;102818.38;5102660;28;20514;-59
2023/05/03 00:06:18;;;;;;;5.23;2.00;;;10.20;61.30;;;12.93;44.61;102815.34;5095560;28;20561;-61
2023/05/03 00:08:45;;;;;;;4.90;1.93;;;10.20;61.20;;;12.89;45.27;102819.22;5095615;28;20709;-62
2023/05/03 00:11:13;;;;;;;6.27;2.27;;;10.10;61.70;;;12.87;45.55;102815.88;5102103;28;20196;-62
2023/05/03 00:13:40;;;;;;;3.43;2.30;;;10.10;61.70;;;12.85;45.23;102815.19;5114335;28;20714;-63
2023/05/03 00:16:07;;;;;;;8.33;2.67;;;10.10;61.70;;;12.81;45.27;102817.25;5095786;28;20215;-61
2023/05/03 00:18:35;;;;;;;5.90;2.30;;;10.10;61.70;;;12.79;45.28;102813.91;5113248;28;20188;-62
2023/05/03 00:21:02;;;;;;;4.00;2.43;;;10.10;61.60;;;12.76;45.19;102813.38;5115953;28;20655;-61
2023/05/03 00:23:29;;;;;;;4.70;1.90;;;10.00;61.50;;;12.72;45.29;102812.81;5115735;28;20183;-60
2023/05/03 00:25:58;;;;;;;3.83;2.00;;;9.90;62.70;;;12.67;44.81;102811.56;5115113;28;20219;-61
2023/05/03 00:28:25;;;;;;;3.73;2.40;;;9.90;62.50;;;12.62;45.15;102811.13;5105005;28;20227;-61
2023/05/03 00:30:52;;;;;;;4.57;1.90;;;9.90;62.90;;;12.57;45.25;102816.00;5114089;28;20525;-60
2023/05/03 00:33:19;;;;;;;6.43;2.43;;;9.80;63.20;;;12.53;45.57;102812.78;5094960;28;20307;-61
2023/05/03 00:35:48;;;;;;;2.97;2.10;;;9.80;63.10;;;12.49;45.20;102807.91;5077304;28;20699;-60
2023/05/03 00:38:15;;;;;;;4.90;2.10;;;9.80;63.20;;;12.45;45.56;102809.16;5096196;28;20196;-59
2023/05/03 00:40:42;;;;;;;2.50;1.80;;;9.70;63.00;;;12.42;45.40;102807.63;5095026;28;20212;-62
2023/05/03 00:43:12;;;;;;;4.43;2.10;;;9.70;63.40;;;12.40;45.69;102816.63;5101691;28;20218;-59
2023/05/03 00:45:39;;;;;;;4.53;2.63;;;9.60;63.50;;;12.35;45.40;102808.28;5099136;28;20262;-63
2023/05/03 00:48:06;;;;;;;4.97;1.93;;;9.60;63.50;;;12.32;45.89;102808.53;5095123;28;20536;-58
2023/05/03 00:50:36;;;;;;;3.30;2.90;;;9.60;63.70;;;12.29;45.84;102806.19;5095083;28;20184;-61
2023/05/03 00:53:05;;;;;;;7.47;2.10;;;9.50;64.30;;;12.28;46.26;102813.28;5112084;28;20218;-58
2023/05/03 00:55:32;;;;;;;4.17;2.30;;;9.50;64.40;;;12.26;45.99;102814.38;5065330;28;20226;-61
2023/05/03 00:57:59;;;;;;;3.73;2.20;;;9.50;64.50;;;12.23;46.15;102811.03;5094657;28;20193;-61
2023/05/03 01:00:26;;;;;;;6.13;1.97;;;9.50;64.70;;;12.20;46.31;102813.94;5106674;28;20202;-61
2023/05/03 01:02:53;;;;;;;4.37;2.30;;;9.40;64.80;;;12.17;46.17;102816.84;5099029;28;20208;-60
2023/05/03 01:05:21;;;;;;;5.80;2.27;;;9.40;64.80;;;12.16;46.30;102814.34;5076287;28;20257;-61
2023/05/03 01:08:07;;;;;;;4.60;2.20;;;9.40;64.90;;;12.13;46.08;102814.59;5094334;28;20188;-61
2023/05/03 01:10:45;;;;;;;3.03;2.37;;;9.30;66.00;;;12.10;46.14;102815.69;5076661;28;20202;-61
2023/05/03 01:13:23;;;;;;;4.07;2.13;;;9.30;64.90;;;12.09;46.20;102815.84;5094208;28;20538;-61
2023/05/03 01:16:02;;;;;;;3.33;2.20;;;9.30;65.40;;;12.11;47.14;102817.38;5105563;28;20215;-61
2023/05/03 01:18:36;;;;;;;3.93;2.17;;;9.30;65.80;;;12.18;47.03;102822.97;5114121;28;20661;-60
2023/05/03 01:21:04;;;;;;;4.67;2.30;;;9.30;66.00;;;12.25;46.51;102816.16;5114970;28;20670;-62
2023/05/03 01:23:41;;;;;;;6.50;2.10;;;9.40;65.80;;;12.30;46.32;102815.78;5096240;28;20186;-61
2023/05/03 01:26:20;;;;;;;2.70;1.80;;;9.40;65.70;;;12.34;46.17;102817.19;5114768;28;20217;-63
2023/05/03 01:28:47;;;;;;;3.27;2.40;;;9.50;65.60;;;12.37;46.61;102815.09;5106185;28;20177;-63
2023/05/03 01:31:23;;;;;;;3.07;2.00;;;9.50;65.60;;;12.42;46.93;102820.81;5093930;28;20194;-60
2023/05/03 01:34:04;;;;;;;4.80;2.00;;;9.50;65.80;;;12.50;46.75;102823.63;5093593;28;20261;-60
2023/05/03 01:36:34;;;;;;;2.73;1.90;;;9.60;65.80;;;12.61;46.23;102820.03;5093996;28;20168;-59
2023/05/03 01:39:08;;;;;;;9.13;2.63;;;9.60;65.60;;;12.68;45.99;102819.34;5098104;28;20194;-59
2023/05/03 01:41:40;;;;;;;3.27;1.83;;;9.70;65.20;;;12.74;46.00;102821.44;5094731;28;20192;-61
2023/05/03 01:44:09;;;;;;;5.17;2.10;;;9.80;65.00;;;12.80;45.90;102820.06;5114463;28;20191;-61
2023/05/03 01:46:42;;;;;;;5.37;2.50;;;9.80;64.90;;;12.85;45.61;102820.47;5114477;28;20643;-60
2023/05/03 01:49:10;;;;;;;7.70;2.87;;;9.90;64.60;;;12.88;45.64;102830.78;5114141;28;20187;-59
2023/05/03 01:51:36;;;;;;;5.93;2.60;;;9.90;64.20;;;12.90;45.23;102820.91;5114381;28;20191;-61
2023/05/03 01:54:04;;;;;;;5.07;2.77;;;10.00;62.80;;;12.89;45.29;102829.78;5094567;28;20213;-62
2023/05/03 01:56:36;;;;;;;5.23;2.43;;;10.00;62.60;;;12.89;45.12;102829.78;5101228;28;20187;-61
2023/05/03 01:59:03;;;;;;;7.27;2.23;;;10.00;62.60;;;12.88;45.28;102828.94;5098858;28;20249;-62
2023/05/03 02:01:30;;;;;;;5.10;2.23;;;10.00;62.70;;;12.89;45.07;102827.16;5093546;28;20192;-61
2023/05/03 02:03:57;;;;;;;4.77;2.30;;;10.00;62.80;;;12.91;45.50;102833.13;5093263;28;20185;-60
2023/05/03 02:06:24;;;;;;;5.10;2.70;;;9.90;64.20;;;12.97;45.67;102829.09;5102256;28;20623;-61
2023/05/03 02:08:52;;;;;;;2.97;2.40;;;10.00;63.30;;;13.02;45.18;102829.53;5112629;28;20229;-60
2023/05/03 02:11:20;;;;;;;5.07;3.10;;;10.00;63.00;;;13.05;45.29;102832.72;5105999;28;20191;-61
2023/05/03 02:13:52;;;;;;;3.23;2.93;;;10.10;62.80;;;13.08;45.22;102835.13;5111215;28;20295;-58
2023/05/03 02:16:19;;;;;;;6.10;2.67;;;10.10;62.80;;;13.12;45.24;102844.44;5093725;28;20192;-60
2023/05/03 02:18:46;;;;;;;7.50;3.60;;;10.10;62.70;;;13.14;45.13;102839.88;5093587;28;20210;-61
2023/05/03 02:21:13;;;;;;;7.63;3.87;;;10.20;62.60;;;13.14;44.78;102834.59;5112605;28;20198;-61
2023/05/03 02:23:40;;;;;;;11.13;4.63;;;10.20;62.40;;;13.12;44.76;102836.50;5114096;28;20551;-58
2023/05/03 02:26:07;;;;;;;12.63;3.97;;;10.20;62.40;;;13.13;45.24;102843.47;5113462;28;20215;-59
2023/05/03 02:28:34;;;;;;;8.23;4.17;;;10.20;62.60;;;13.15;44.92;102849.44;5100938;28;20279;-61
2023/05/03 02:31:05;;;;;;;13.53;4.83;;;10.10;62.60;;;13.18;45.10;102841.25;5093166;28;20602;-60
2023/05/03 02:33:32;;;;;;;8.20;3.97;;;10.20;62.90;;;13.20;45.16;102847.22;5099171;28;20266;-61
2023/05/03 02:35:59;;;;;;;13.13;3.83;;;10.20;62.90;;;13.23;45.22;102852.25;5105867;28;20216;-62
2023/05/03 02:38:27;;;;;;;6.10;4.23;;;10.20;62.90;;;13.24;45.17;102848.59;5093378;28;20217;-59
2023/05/03 02:40:54;;;;;;;5.37;3.43;;;10.20;62.90;;;13.23;45.15;102854.91;5095168;28;20200;-60
2023/05/03 02:43:21;;;;;;;12.60;4.53;;;10.20;63.10;;;13.25;45.04;102858.22;5097228;28;20191;-60
2023/05/03 02:45:48;;;;;;;8.30;3.67;;;10.20;62.90;;;13.25;45.20;102858.22;5113623;28;20219;-61
2023/05/03 02:48:16;;;;;;;6.10;3.93;;;10.20;62.90;;;13.26;44.98;102849.34;5072973;28;20213;-60
2023/05/03 02:50:43;;;;;;;8.93;4.40;;;10.30;63.10;;;13.26;45.16;102856.44;5109464;28;20192;-62
2023/05/03 02:53:10;;;;;;;10.27;4.83;;;10.30;63.10;;;13.26;45.17;102849.34;5110433;28;20599;-61
2023/05/03 02:55:38;;;;;;;7.80;3.33;;;10.20;63.10;;;13.29;45.43;102850.84;5092670;28;20226;-61
2023/05/03 02:58:06;;;;;;;8.00;3.83;;;10.30;63.50;;;13.35;45.53;102845.84;5093293;28;20193;-60
2023/05/03 03:00:33;;;;;;;10.00;3.33;;;10.30;63.40;;;13.40;45.43;102851.56;5109490;28;20248;-59
2023/05/03 03:03:00;;;;;;;8.20;3.50;;;10.40;63.40;;;13.44;45.26;102852.09;5111958;28;20586;-61
2023/05/03 03:05:28;;;;;;;3.63;3.03;;;10.40;63.20;;;13.44;44.99;102847.63;5092928;28;20209;-62
2023/05/03 03:07:55;;;;;;;10.97;3.60;;;10.40;62.90;;;13.43;45.34;102845.94;5075079;28;20287;-60
2023/05/03 03:10:23;;;;;;;4.83;3.57;;;10.40;63.20;;;13.46;45.33;102845.69;5094321;28;20193;-61
2023/05/03 03:12:50;;;;;;;6.17;3.23;;;10.50;62.90;;;13.48;45.22;102843.72;5092800;28;20217;-60
2023/05/03 03:15:17;;;;;;;7.83;3.40;;;10.50;62.80;;;13.49;45.07;102836.63;5097429;28;20217;-63
2023/05/03 03:17:44;;;;;;;9.07;3.40;;;10.50;62.60;;;13.46;44.79;102835.09;5092854;28;20192;-61
2023/05/03 03:20:11;;;;;;;8.03;3.60;;;10.50;62.50;;;13.46;44.99;102844.84;5106226;28;20283;-62
2023/05/03 03:22:40;;;;;;;5.77;3.37;;;10.50;62.60;;;13.43;44.77;102834.56;5116824;28;20279;-61
2023/05/03 03:25:08;;;;;;;4.47;3.13;;;10.50;62.40;;;13.41;44.70;102837.34;5097951;28;20220;-62
2023/05/03 03:27:35;;;;;;;5.13;3.07;;;10.40;62.30;;;13.40;44.92;102819.81;5078601;28;20196;-59
2023/05/03 03:30:07;;;;;;;5.53;3.10;;;10.40;62.50;;;13.41;45.00;102832.03;5108218;28;20247;-62
2023/05/03 03:32:34;;;;;;;5.87;3.40;;;10.40;62.60;;;13.43;44.94;102821.34;5101661;28;20203;-62
2023/05/03 03:35:01;;;;;;;6.73;3.20;;;10.40;62.40;;;13.43;44.99;102823.97;5112981;28;20261;-61
2023/05/03 03:37:28;;;;;;;4.77;3.03;;;10.40;62.50;;;13.45;45.03;102828.13;5116851;28;20195;-63
2023/05/03 03:39:56;;;;;;;5.00;3.27;;;10.40;62.70;;;13.46;44.97;102827.16;5106688;28;20197;-60
2023/05/03 03:42:24;;;;;;;4.70;3.40;;;10.40;62.90;;;13.45;44.91;102830.78;5097095;28;20692;-61
2023/05/03 03:44:51;;;;;;;8.60;4.23;;;10.40;62.80;;;13.45;44.80;102822.84;5111873;28;20215;-59
2023/05/03 03:47:18;;;;;;;4.73;3.53;;;10.40;62.70;;;13.45;45.04;102828.13;5118189;28;20533;-61
2023/05/03 03:49:45;;;;;;;6.57;3.23;;;10.40;62.90;;;13.46;44.98;102829.81;5111130;28;20184;-60
2023/05/03 03:52:12;;;;;;;7.30;4.00;;;10.40;63.00;;;13.47;45.07;102836.78;5099322;28;20200;-61
2023/05/03 03:54:39;;;;;;;5.17;3.43;;;10.40;63.10;;;13.51;45.24;102832.03;5079897;28;20724;-60
2023/05/03 03:57:08;;;;;;;10.50;5.07;;;10.50;63.40;;;13.57;45.14;102829.63;5096161;28;20197;-61
2023/05/03 03:59:34;;;;;;;10.07;4.07;;;10.50;63.00;;;13.58;44.87;102828.69;5083919;28;20632;-58
2023/05/03 04:02:01;;;;;;;7.90;4.60;;;10.50;62.60;;;13.59;44.73;102832.16;5116624;28;20656;-62
2023/05/03 04:04:30;;;;;;;4.60;3.40;;;10.60;62.60;;;13.60;44.80;102833.00;5104023;28;20240;-60
2023/05/03 04:06:57;;;;;;;8.20;3.80;;;10.60;62.60;;;13.60;44.90;102836.47;5096947;28;20192;-60
2023/05/03 04:09:24;;;;;;;7.07;2.90;;;10.60;62.60;;;13.62;44.90;102831.84;5102070;28;20200;-61
2023/05/03 04:11:51;;;;;;;4.50;3.13;;;10.60;62.90;;;13.70;45.46;102828.50;5117339;28;20188;-59
2023/05/03 04:14:19;;;;;;;4.90;3.17;;;10.70;63.10;;;13.79;45.04;102835.56;5109558;28;20571;-62
2023/05/03 04:16:46;;;;;;;4.83;3.13;;;10.80;63.10;;;13.91;45.11;102839.72;5095995;28;20772;-60
2023/05/03 04:19:13;;;;;;;7.23;3.60;;;10.90;62.90;;;14.05;44.62;102836.59;5096480;28;20192;-60
2023/05/03 04:21:40;;;;;;;6.20;3.37;;;11.00;62.20;;;14.11;44.29;102846.63;5085450;28;20207;-61
2023/05/03 04:24:08;;;;;;;5.67;3.37;;;11.10;61.70;;;14.13;44.01;102839.38;5096389;28;20215;-60
2023/05/03 04:26:35;;;;;;;3.97;3.33;;;11.20;61.20;;;14.12;43.91;102829.78;5097151;28;20192;-62
2023/05/03 04:29:03;;;;;;;5.33;4.10;;;11.20;61.40;;;14.13;44.13;102837.56;5106287;28;20541;-61
2023/05/03 04:31:31;;;;;;;4.97;3.23;;;11.20;61.60;;;14.21;44.10;102828.88;5096046;28;20279;-63
2023/05/03 04:33:58;;;;;;;4.67;3.50;;;11.30;61.50;;;14.27;44.07;102825.63;5103596;28;20208;-61
2023/05/03 04:36:25;;;;;;;5.13;3.13;;;11.30;61.20;;;14.33;43.72;102829.56;5116797;28;20580;-61
2023/05/03 04:38:52;;;;;;;6.57;3.67;;;11.40;60.70;;;14.37;43.40;102830.91;5101917;28;20205;-62
2023/05/03 04:41:19;;;;;;;6.00;3.67;;;11.40;60.20;;;14.40;43.64;102835.94;5095559;28;20207;-62
2023/05/03 04:43:46;;;;;;;4.97;3.30;;;11.40;60.30;;;14.44;43.47;102837.28;5081172;28;20311;-61
2023/05/03 04:46:13;;;;;;;4.37;3.37;;;11.50;60.30;;;14.49;43.45;102830.59;5113475;28;20237;-59
2023/05/03 04:48:41;;;;;;;5.80;3.43;;;11.60;60.00;;;14.53;43.00;102831.94;5106225;28;20221;-62
2023/05/03 04:51:08;;;;;;;5.80;3.37;;;11.60;59.70;;;14.53;42.91;102837.25;5115382;28;20188;-60
2023/05/03 04:53:35;;;;;;;7.13;3.30;;;11.60;59.40;;;14.55;42.79;102845.88;5093309;28;20669;-61
2023/05/03 04:56:03;;;;;;;6.93;3.50;;;11.60;59.30;;;14.59;42.73;102841.97;5094568;28;20217;-62
2023/05/03 04:58:30;;;;;;;4.30;3.23;;;11.70;59.50;;;14.68;42.73;102843.72;5104301;28;20591;-62
2023/05/03 05:00:57;;;;;;;7.23;3.33;;;11.70;59.50;;;14.78;42.51;102847.16;5115091;28;20195;-63
2023/05/03 05:03:24;;;;;;;4.00;3.60;;;11.80;59.30;;;14.85;42.47;102850.03;5112993;28;20184;-64
2023/05/03 05:05:52;;;;;;;5.37;3.27;;;11.90;59.10;;;14.91;41.96;102844.94;5095182;28;20208;-64
2023/05/03 05:08:19;;;;;;;3.90;2.57;;;11.90;58.10;;;14.93;41.57;102850.09;5085098;28;20684;-59
2023/05/03 05:10:47;;;;;;;6.20;3.37;;;11.90;57.70;;;14.99;41.26;102853.97;5098376;28;20246;-63
2023/05/03 05:13:14;;;;;;;3.40;3.10;;;12.00;58.00;;;15.00;41.58;102856.44;5094102;28;20200;-64
2023/05/03 05:15:41;;;;;;;5.20;3.33;;;12.00;58.20;;;15.01;41.68;102852.81;5095687;28;20680;-63
2023/05/03 05:18:08;;;;;;;7.00;3.50;;;12.00;58.10;;;15.06;42.12;102855.88;5080362;28;20657;-60
2023/05/03 05:20:35;;;;;;;4.80;3.60;;;12.10;58.60;;;15.07;41.88;102862.00;5093482;28;20197;-61
2023/05/03 05:23:03;;;;;;;5.20;3.50;;;12.10;58.60;;;15.08;41.67;102868.97;5094962;28;20554;-62
2023/05/03 05:25:30;;;;;;;6.33;3.37;;;12.10;58.50;;;15.08;41.75;102871.63;5112744;28;20208;-61
2023/05/03 05:27:57;;;;;;;4.80;3.07;;;12.10;58.40;;;15.09;42.02;102873.28;5108756;28;20200;-62
2023/05/03 05:30:24;;;;;;;6.33;3.50;;;12.00;59.10;;;15.12;41.94;102873.81;5109756;28;20191;-63
2023/05/03 05:32:51;;;;;;;5.20;3.53;;;12.00;58.30;;;15.13;41.57;102877.31;5079463;28;20501;-63
2023/05/03 05:35:18;;;;;;;5.77;3.63;;;12.00;58.20;;;15.17;41.55;102873.34;5110589;28;20219;-62
2023/05/03 05:37:45;;;;;;;6.97;3.27;;;12.00;58.40;;;15.18;41.42;102875.88;5114555;28;20195;-63
2023/05/03 05:40:14;;;;;;;7.00;3.43;;;12.00;58.40;;;15.22;41.43;102882.53;5103599;28;20203;-62
2023/05/03 05:42:41;;;;;;;7.37;5.50;;;12.00;58.00;;;15.26;40.70;102883.06;5075710;28;20231;-62
2023/05/03 05:45:10;;;;;;;6.40;5.07;;;12.10;57.60;;;15.32;40.82;102893.91;5094698;28;20204;-63
2023/05/03 05:47:37;;;;;;;9.73;6.20;;;12.10;57.60;;;15.42;40.50;102893.81;5112344;28;20203;-62
2023/05/03 05:50:06;;;;;;;11.27;3.80;;;12.20;57.30;;;15.55;40.28;102896.94;5081415;28;20303;-64
2023/05/03 05:52:43;;;;;;;5.43;2.57;;;12.30;56.60;;;15.66;39.81;102896.72;5115029;28;20748;-63
2023/05/03 05:55:13;;;;;;;7.20;3.10;;;12.40;56.40;;;15.76;39.95;102897.44;5065830;28;20228;-61
2023/05/03 05:57:41;;;;;;;4.13;2.70;;;12.50;56.20;;;15.84;39.47;102900.16;5094991;28;20195;-62
2023/05/03 06:00:13;;;;;;;4.40;3.40;;;12.60;54.80;;;15.88;39.33;102893.53;5114201;28;20198;-62
2023/05/03 06:02:40;;;;;;;3.73;2.73;;;12.60;55.30;;;15.95;39.03;102901.75;5096787;28;20210;-61
2023/05/03 06:05:09;;;;;;;6.67;3.93;;;12.70;55.40;;;16.05;39.34;102903.28;5097192;28;20689;-63
2023/05/03 06:07:36;;;;;;;5.87;3.13;;;12.70;55.50;;;16.16;38.94;102904.84;5076253;28;20192;-63
2023/05/03 06:10:04;;;;;;;6.13;2.90;;;12.80;55.50;;;16.21;38.68;102902.56;5104462;28;20196;-62
2023/05/03 06:12:32;;;;;;;7.10;2.80;;;12.90;55.00;;;16.26;38.18;102908.19;5093814;28;20188;-63
2023/05/03 06:15:00;;;;;;;8.40;2.87;;;12.90;54.20;;;16.28;38.14;102904.41;5096419;28;20224;-63
2023/05/03 06:17:30;;;;;;;5.77;3.40;;;13.00;54.10;;;16.33;37.86;102901.25;5094252;28;20569;-63
2023/05/03 06:19:57;;;;;;;5.37;3.53;;;13.00;53.90;;;16.41;37.96;102908.44;5114135;28;20676;-62
2023/05/03 06:22:25;;;;;;;4.97;3.20;;;13.10;54.30;;;16.50;37.99;102907.47;5114263;28;20529;-63
2023/05/03 06:24:53;;;;;;;5.53;3.00;;;13.10;54.00;;;16.56;37.91;102912.22;5114191;28;20230;-64
2023/05/03 06:27:20;;;;;;;4.17;2.80;;;13.20;53.60;;;16.64;37.35;102914.91;5094561;28;20195;-61
2023/05/03 06:29:48;;;;;;;4.00;3.07;;;13.30;53.20;;;16.72;37.15;102906.94;5099509;28;20268;-61
2023/05/03 06:32:18;;;;;;;7.93;4.70;;;13.30;53.10;;;16.81;37.02;102900.66;5093795;28;20189;-64
2023/05/03 06:34:45;;;;;;;4.13;2.70;;;13.40;53.20;;;16.91;36.89;102901.34;5094698;28;20244;-64
2023/05/03 06:37:13;;;;;;;5.57;2.53;;;13.40;52.50;;;16.99;36.30;102898.72;5091791;28;20357;-63
2023/05/03 06:39:40;;;;;;;11.50;7.77;;;13.50;51.90;;;17.08;35.97;102907.53;5072908;28;20676;-62
2023/05/03 06:42:07;;;;;;;6.20;3.70;;;13.60;51.60;;;17.17;35.96;102906.56;5072972;28;20189;-62
2023/05/03 06:44:34;;;;;;;17.37;5.17;;;13.70;51.20;;;17.22;35.65;102906.91;5085276;28;20615;-64
2023/05/03 06:47:01;;;;;;;6.70;2.47;;;13.70;50.50;;;17.25;34.96;102914.56;5075941;28;20580;-63
2023/05/03 06:49:31;;;;;;;4.73;3.10;;;13.80;49.90;;;17.29;35.21;102924.72;5090990;28;20268;-67
2023/05/03 06:51:58;;;;;;;4.57;3.23;;;13.90;50.50;;;17.36;35.51;102917.72;5113502;28;20188;-64
2023/05/03 06:54:25;;;;;;;6.37;2.57;;;13.90;50.60;;;17.41;35.12;102915.41;5086625;28;20235;-62
2023/05/03 06:56:52;;;;;;;5.13;2.70;;;14.00;50.60;;;17.40;35.16;102924.38;5096850;28;20656;-62
2023/05/03 06:59:19;;;;;;;8.10;2.73;;;14.00;50.30;;;17.39;35.04;102933.38;5110432;28;20597;-65
2023/05/03 07:01:46;;;;;;;4.73;2.63;;;14.10;49.60;;;17.40;34.87;102924.38;5116931;28;20306;-63
2023/05/03 07:04:13;;;;;;;4.93;2.57;;;14.10;49.10;;;17.36;34.66;102925.72;5086989;28;20212;-62
2023/05/03 07:06:42;;;;;;;3.83;2.40;;;14.00;48.50;;;17.38;34.54;102926.38;5093455;28;20266;-62
2023/05/03 07:09:22;;;;;;;7.10;2.30;;;14.00;48.80;;;17.39;34.42;102933.38;5091212;28;20200;-64
2023/05/03 07:12:08;;;;;;;4.37;2.03;;;14.00;48.50;;;17.34;34.37;102925.06;5068751;28;20650;-62
2023/05/03 07:14:37;;;;;;;7.57;2.30;;;14.00;48.30;;;17.34;34.36;102925.06;5067772;28;20238;-64
2023/05/03 07:17:06;;;;;;;2.53;1.87;;;14.00;48.40;;;17.34;34.60;102921.56;5087016;28;20190;-61
2023/05/03 07:19:33;;;;;;;5.23;2.47;;;14.00;48.20;;;17.34;34.34;102919.72;5102369;28;20253;-62
2023/05/03 07:22:02;;;;;;;5.63;2.40;;;14.00;48.10;;;17.38;34.24;102920.22;5061484;28;20228;-62
2023/05/03 07:24:29;;;;;;;3.60;2.30;;;14.00;48.10;;;17.42;34.30;102919.72;5058785;28;20239;-63
2023/05/03 07:26:57;;;;;;;3.97;2.00;;;14.00;48.30;;;17.46;33.89;102918.41;5093950;28;20196;-64
2023/05/03 07:29:26;;;;;;;4.53;2.20;;;14.10;47.90;;;17.44;33.84;102917.75;5098438;28;20204;-62
2023/05/03 07:31:53;;;;;;;3.97;2.97;;;14.10;47.20;;;17.39;33.97;102928.06;5074143;28;20201;-63
2023/05/03 07:34:20;;;;;;;5.70;3.87;;;14.10;47.50;;;17.37;33.93;102924.72;5102977;28;20220;-62
2023/05/03 07:36:47;;;;;;;5.13;2.77;;;14.10;47.70;;;17.35;34.19;102929.34;5081425;28;20250;-63
2023/05/03 07:39:16;;;;;;;7.10;3.30;;;14.00;48.20;;;17.40;34.50;102931.56;5102584;28;20649;-63
2023/05/03 07:41:44;;;;;;;8.70;4.67;;;14.10;48.30;;;17.46;34.40;102933.53;5095206;28;20188;-63
2023/05/03 07:44:10;;;;;;;4.13;3.23;;;14.20;48.40;;;17.56;34.32;102924.44;5076144;28;20270;-63
2023/05/03 07:46:38;;;;;;;5.20;1.80;;;14.20;48.60;;;17.61;33.78;102931.09;5094887;28;20672;-63
2023/05/03 07:49:05;;;;;;;3.90;2.07;;;14.30;47.60;;;17.60;33.90;102924.94;5104568;28;20203;-63
2023/05/03 07:51:35;;;;;;;3.87;1.70;;;14.40;47.30;;;17.55;33.77;102922.75;5097658;28;20213;-63
2023/05/03 07:54:03;;;;;;;4.67;2.10;;;14.40;46.70;;;17.53;33.90;102916.78;5103542;28;20184;-63
2023/05/03 07:56:31;;;;;;;3.13;1.90;;;14.30;47.40;;;17.57;34.11;102915.44;5076627;28;20213;-62
2023/05/03 07:58:59;;;;;;;4.10;1.93;;;14.40;47.40;;;17.69;33.71;102913.25;5101567;28;20206;-63
2023/05/03 08:01:36;;;;;;;2.50;1.50;;;14.40;46.80;;;17.96;33.23;102920.06;5092480;28;20279;-64
2023/05/03 08:04:04;;;;;;;4.83;1.70;;;14.50;46.90;;;18.16;32.48;102921.38;5083473;28;20658;-63
2023/05/03 08:06:34;;;;;;;5.33;2.13;;;14.70;45.70;;;18.27;32.12;102919.16;5093933;28;20278;-65
2023/05/03 08:09:03;;;;;;;6.13;2.00;;;14.80;45.20;;;18.36;31.87;102922.63;5090450;28;20262;-62
2023/05/03 08:11:31;;;;;;;3.90;1.57;;;14.80;44.50;;;18.48;31.58;102920.44;5076274;28;20290;-63
2023/05/03 08:13:59;;;;;;;1.53;1.00;;;14.90;44.60;;;18.60;31.32;102927.91;5079221;28;20208;-62
2023/05/03 08:16:26;;;;;;;3.87;1.50;;;15.00;44.10;;;18.75;31.20;102926.19;5076618;28;20677;-61
2023/05/03 08:18:53;;;;;;;3.33;1.43;;;15.10;44.00;;;18.87;30.67;102922.09;5099972;28;20192;-62
2023/05/03 08:21:23;;;;;;;2.47;1.87;;;15.20;43.40;;;19.00;30.89;102916.19;5060323;28;20201;-62
2023/05/03 08:23:50;;;;;;;2.87;1.70;;;15.30;43.80;;;19.13;30.86;102915.63;5059543;28;20676;-60
2023/05/03 08:26:17;;;;;;;2.77;1.40;;;15.30;43.60;;;19.26;30.70;102918.50;5105973;28;20204;-62
2023/05/03 08:28:45;;;;;;;5.87;3.87;;;15.50;43.50;;;19.41;30.10;102914.09;5096987;28;20485;-62
2023/05/03 08:31:13;;;;;;;2.43;1.60;;;15.50;42.50;;;19.46;30.04;102909.06;5077100;28;20561;-65
2023/05/03 08:33:40;;;;;;;5.13;2.77;;;15.70;42.10;;;19.54;29.82;102911.63;5093582;28;20657;-60
2023/05/03 08:36:08;;;;;;;3.90;1.70;;;15.70;41.60;;;19.61;29.76;102920.63;5087120;28;20297;-64
2023/05/03 08:38:39;;;;;;;4.87;2.07;;;15.80;41.50;;;19.67;29.21;102914.56;5075101;28;20196;-63
2023/05/03 08:41:21;;;;;;;2.87;1.70;;;15.80;41.20;;;20.03;29.08;102920.88;5098203;28;20211;-61
2023/05/03 08:43:53;;;;;;;2.80;1.60;;;15.90;40.90;;;20.50;28.77;102914.34;5092723;28;20210;-61
2023/05/03 08:46:20;;;;;;;2.37;1.83;;;16.10;40.50;;;20.82;27.67;102924.66;5091099;28;20700;-62
2023/05/03 08:48:51;;;;;;;4.60;1.60;;;16.30;39.90;;;21.46;27.67;102915.66;5088900;28;20189;-63
2023/05/03 08:51:20;;;;;;;4.17;1.63;;;16.60;40.10;;;22.33;26.51;102920.63;5092174;28;20196;-62
2023/05/03 08:53:48;;;;;;;2.87;1.50;;;17.10;39.10;;;22.64;25.73;102921.03;5074721;28;20197;-63
2023/05/03 08:56:24;;;;;;;3.00;1.60;;;17.50;38.00;;;23.65;25.05;102914.63;5088909;28;20223;-63
2023/05/03 08:58:53;;;;;;;5.27;1.60;;;17.90;37.10;;;24.94;23.30;102911.78;5099592;28;20184;-62
2023/05/03 09:01:22;;;;;;;2.80;1.60;;;18.50;36.30;;;26.10;22.53;102907.56;5114026;28;20225;-64
2023/05/03 09:03:51;;;;;;;3.10;1.70;;;19.20;36.10;;;27.39;21.11;102916.03;5081935;28;20189;-66
2023/05/03 09:06:21;;;;;;;3.63;2.37;;;19.90;34.10;;;28.29;19.63;102917.34;5092855;28;20196;-63
2023/05/03 09:08:49;;;;;;;2.60;1.80;;;20.60;31.60;;;28.58;20.07;102912.78;5099296;28;20199;-62
2023/05/03 09:11:24;;;;;;;2.70;1.42;;;21.30;32.50;;;29.17;18.69;102914.22;5075044;28;20439;-65
2023/05/03 09:13:53;;;;;;;1.93;1.43;;;22.00;29.80;;;28.75;18.95;102919.13;5075376;28;20892;-64
2023/05/03 09:16:26;;;;;;;3.73;1.20;;;22.30;29.70;;;28.08;19.26;102918.81;5092845;28;20686;-65
2023/05/03 09:18:58;;;;;;;2.03;1.70;;;22.40;28.80;;;27.27;20.01;102916.00;5099625;28;20191;-61
2023/05/03 09:21:26;;;;;;;2.83;2.03;;;22.30;28.50;;;26.58;20.02;102921.94;5096091;28;20199;-63
2023/05/03 09:23:53;;;;;;;4.33;1.63;;;22.00;28.40;;;25.90;21.18;102917.72;5109324;28;20196;-62
2023/05/03 09:26:31;;;;;;;7.27;3.60;;;21.70;28.60;;;25.15;21.30;102924.94;5075203;28;20220;-64
2023/05/03 09:29:03;;;;;;;3.60;1.53;;;21.30;29.20;;;24.60;21.51;102925.63;5075997;28;20196;-65
2023/05/03 09:31:33;;;;;;;4.97;1.93;;;20.80;29.10;;;23.90;22.35;102924.53;5090656;28;20390;-65
2023/05/03 09:34:20;;;;;;;2.57;1.43;;;20.40;29.20;;;23.33;23.17;102921.63;5071251;28;20654;-64
2023/05/03 09:36:49;;;;;;;3.53;2.60;;;20.00;29.90;;;23.09;23.48;102927.56;5091960;28;20273;-64
2023/05/03 09:39:18;;;;;;;2.97;1.30;;;19.60;30.40;;;23.01;23.37;102930.44;5096936;28;20196;-64
2023/05/03 09:41:48;;;;;;;3.40;2.90;;;19.30;30.50;;;23.20;23.63;102926.97;5082901;28;20211;-64
2023/05/03 09:44:17;;;;;;;4.27;2.80;;;19.10;31.60;;;23.52;23.59;102920.84;5089428;28;20355;-66
2023/05/03 09:47:03;;;;;;;17.60;14.07;;;19.00;32.20;;;25.06;22.82;102909.22;5082749;28;20185;-65
2023/05/03 09:49:31;;;;;;;3.77;1.80;;;19.30;32.70;;;25.60;21.80;102906.78;5103034;28;20302;-65
2023/05/03 09:52:00;;;;;;;2.83;1.57;;;19.60;31.80;;;25.62;21.52;102909.25;5083464;28;20218;-64
2023/05/03 09:54:27;;;;;;;4.00;2.10;;;19.80;30.70;;;25.82;21.15;102912.59;5070753;28;20224;-65
2023/05/03 09:56:55;;;;;;;6.27;5.40;;;20.00;31.20;;;27.28;20.10;102903.31;5083570;28;20546;-65
2023/05/03 09:59:23;;;;;;;4.37;1.70;;;20.40;31.10;;;29.16;18.48;102905.25;5101092;28;20534;-65
2023/05/03 10:01:56;;;;;;;3.13;1.43;;;21.10;30.40;;;30.72;16.97;102893.88;5107686;28;20207;-67
2023/05/03 10:04:26;;;;;;;3.47;1.30;;;21.80;29.30;;;32.12;16.05;102886.31;5074275;28;20228;-64
2023/05/03 10:06:59;;;;;;;2.33;1.27;;;22.70;28.60;;;33.62;15.05;102890.34;5089910;28;20223;-66
2023/05/03 10:09:36;;;;;;;3.43;1.47;;;23.70;28.10;;;34.31;14.99;102890.41;5091371;28;20587;-65
2023/05/03 10:12:08;;;;;;;2.13;1.40;;;24.60;27.50;;;33.25;14.90;102896.94;5089525;28;20214;-65
2023/05/03 10:14:40;;;;;;;2.13;1.50;;;25.10;26.40;;;32.12;15.17;102887.09;5089697;28;20714;-65
2023/05/03 10:17:15;;;;;;;1.53;1.03;;;25.30;25.60;;;30.92;15.83;102881.59;5088967;28;20231;-66
2023/05/03 10:19:51;;;;;;;2.57;1.57;;;25.10;25.20;;;29.88;16.95;102880.88;5092132;28;20249;-66